sensor_id;sensor_type;location;lat;lon;timestamp;P1;durP1;ratioP1;P2;durP2;ratioP2
79346;SDS011;68815;48.810;44.482;2023-04-06T00:01:43;9.9;;;5.2;;
79346;SDS011;68815;48.810;44.482;2023-04-06T00:04:44;8.9;;;5.6;;
79346;SDS011;68815;48.810;44.482;2023-04-06T00:07:46;9.6;;;5.7;;
79346;SDS011;68815;48.810;44.482;2023-04-06T00:10:47;9.3;;;5.5;;
79346;SDS011;68815;48.810;44.482;2023-04-06T00:13:49;8;;;5.1;;
79346;SDS011;68815;48.810;44.482;2023-04-06T00:20:07;24.2;;;13.4;;
79346;SDS011;68815;48.810;44.482;2023-04-06T00:23:10;25.9;;;14.5;;
79346;SDS011;68815;48.810;44.482;2023-04-06T00:26:12;19.9;;;11.7;;
79346;SDS011;68815;48.810;44.482;2023-04-06T00:29:14;12.3;;;7.5;;
79346;SDS011;68815;48.810;44.482;2023-04-06T00:32:15;10.9;;;6.1;;
79346;SDS011;68815;48.810;44.482;2023-04-06T00:35:16;17.3;;;10.3;;
79346;SDS011;68815;48.810;44.482;2023-04-06T00:38:18;9.8;;;6.4;;
79346;SDS011;68815;48.810;44.482;2023-04-06T00:41:20;9.9;;;6.3;;
79346;SDS011;68815;48.810;44.482;2023-04-06T00:44:21;9.8;;;5.6;;
79346;SDS011;68815;48.810;44.482;2023-04-06T00:47:23;11.4;;;7.4;;
79346;SDS011;68815;48.810;44.482;2023-04-06T00:50:25;9.5;;;5.9;;
79346;SDS011;68815;48.810;44.482;2023-04-06T00:53:27;7.6;;;4.2;;
79346;SDS011;68815;48.810;44.482;2023-04-06T00:56:28;6.8;;;4.3;;
79346;SDS011;68815;48.810;44.482;2023-04-06T00:59:29;10.5;;;4.7;;
79346;SDS011;68815;48.810;44.482;2023-04-06T01:02:31;7.5;;;4.2;;
79346;SDS011;68815;48.810;44.482;2023-04-06T01:05:33;7.6;;;5.2;;
79346;SDS011;68815;48.810;44.482;2023-04-06T01:08:34;8.1;;;4.8;;
79346;SDS011;68815;48.810;44.482;2023-04-06T01:11:37;8.4;;;5.2;;
79346;SDS011;68815;48.810;44.482;2023-04-06T01:14:38;8.2;;;4.8;;
79346;SDS011;68815;48.810;44.482;2023-04-06T01:17:40;9;;;4.6;;
79346;SDS011;68815;48.810;44.482;2023-04-06T01:20:42;6.8;;;4.6;;
79346;SDS011;68815;48.810;44.482;2023-04-06T01:23:43;7.7;;;4.5;;
79346;SDS011;68815;48.810;44.482;2023-04-06T01:26:46;7.7;;;4.8;;
79346;SDS011;68815;48.810;44.482;2023-04-06T01:29:47;7.8;;;5.4;;
79346;SDS011;68815;48.810;44.482;2023-04-06T01:32:49;9.6;;;5.1;;
79346;SDS011;68815;48.810;44.482;2023-04-06T01:35:50;8.6;;;4.8;;
79346;SDS011;68815;48.810;44.482;2023-04-06T01:38:51;7.3;;;4.2;;
79346;SDS011;68815;48.810;44.482;2023-04-06T01:41:53;7.4;;;4.2;;
79346;SDS011;68815;48.810;44.482;2023-04-06T01:44:54;7.6;;;3.9;;
79346;SDS011;68815;48.810;44.482;2023-04-06T01:47:56;7.7;;;4.1;;
79346;SDS011;68815;48.810;44.482;2023-04-06T01:50:58;7.6;;;4.1;;
79346;SDS011;68815;48.810;44.482;2023-04-06T01:53:59;7.3;;;3.9;;
79346;SDS011;68815;48.810;44.482;2023-04-06T01:57:00;7.5;;;4.1;;
79346;SDS011;68815;48.810;44.482;2023-04-06T02:00:02;6.2;;;3.5;;
79346;SDS011;68815;48.810;44.482;2023-04-06T02:03:03;7.5;;;3.6;;
79346;SDS011;68815;48.810;44.482;2023-04-06T02:06:05;6.4;;;3.5;;
79346;SDS011;68815;48.810;44.482;2023-04-06T02:09:06;6.4;;;3.6;;
79346;SDS011;68815;48.810;44.482;2023-04-06T02:12:09;6.4;;;3.9;;
79346;SDS011;68815;48.810;44.482;2023-04-06T02:15:12;10.6;;;5.8;;
79346;SDS011;68815;48.810;44.482;2023-04-06T02:18:14;8.2;;;4.7;;
79346;SDS011;68815;48.810;44.482;2023-04-06T02:21:17;8.5;;;4.8;;
79346;SDS011;68815;48.810;44.482;2023-04-06T02:24:18;7.2;;;4.4;;
79346;SDS011;68815;48.810;44.482;2023-04-06T02:27:20;7.1;;;4.1;;
79346;SDS011;68815;48.810;44.482;2023-04-06T02:30:21;9.5;;;3.8;;
79346;SDS011;68815;48.810;44.482;2023-04-06T02:33:23;7.5;;;4;;
79346;SDS011;68815;48.810;44.482;2023-04-06T02:36:24;9.4;;;4.6;;
79346;SDS011;68815;48.810;44.482;2023-04-06T02:39:26;8.7;;;4.3;;
79346;SDS011;68815;48.810;44.482;2023-04-06T02:42:27;7.6;;;4.2;;
79346;SDS011;68815;48.810;44.482;2023-04-06T02:45:28;8.3;;;4.4;;
79346;SDS011;68815;48.810;44.482;2023-04-06T02:48:30;7.8;;;4.6;;
79346;SDS011;68815;48.810;44.482;2023-04-06T02:51:31;18.4;;;11;;
79346;SDS011;68815;48.810;44.482;2023-04-06T02:54:32;9;;;4.2;;
79346;SDS011;68815;48.810;44.482;2023-04-06T02:57:34;9.7;;;4.8;;
79346;SDS011;68815;48.810;44.482;2023-04-06T03:00:36;10.8;;;4.5;;
79346;SDS011;68815;48.810;44.482;2023-04-06T03:03:38;9;;;4.2;;
79346;SDS011;68815;48.810;44.482;2023-04-06T03:06:39;7.6;;;3.6;;
79346;SDS011;68815;48.810;44.482;2023-04-06T03:09:41;9.7;;;4.3;;
79346;SDS011;68815;48.810;44.482;2023-04-06T03:12:42;8.8;;;4;;
79346;SDS011;68815;48.810;44.482;2023-04-06T03:19:15;11;;;5.2;;
79346;SDS011;68815;48.810;44.482;2023-04-06T03:22:17;10.6;;;4.8;;
79346;SDS011;68815;48.810;44.482;2023-04-06T03:25:18;8.3;;;4.1;;
79346;SDS011;68815;48.810;44.482;2023-04-06T03:28:19;8.4;;;3.2;;
79346;SDS011;68815;48.810;44.482;2023-04-06T03:31:21;10.6;;;3.5;;
79346;SDS011;68815;48.810;44.482;2023-04-06T03:34:22;11;;;4.4;;
79346;SDS011;68815;48.810;44.482;2023-04-06T03:37:24;13;;;4.8;;
79346;SDS011;68815;48.810;44.482;2023-04-06T03:40:25;12.8;;;4.4;;
79346;SDS011;68815;48.810;44.482;2023-04-06T03:43:27;13.5;;;4.3;;
79346;SDS011;68815;48.810;44.482;2023-04-06T03:46:28;9.8;;;3.7;;
79346;SDS011;68815;48.810;44.482;2023-04-06T03:49:30;11.6;;;4.1;;
79346;SDS011;68815;48.810;44.482;2023-04-06T03:52:31;10;;;3.8;;
79346;SDS011;68815;48.810;44.482;2023-04-06T03:55:32;11.5;;;4.1;;
79346;SDS011;68815;48.810;44.482;2023-04-06T03:58:34;9.1;;;3.6;;
79346;SDS011;68815;48.810;44.482;2023-04-06T04:01:35;16.2;;;4.4;;
79346;SDS011;68815;48.810;44.482;2023-04-06T04:04:36;13.8;;;4.7;;
79346;SDS011;68815;48.810;44.482;2023-04-06T04:07:38;17.5;;;5.1;;
79346;SDS011;68815;48.810;44.482;2023-04-06T04:10:56;17.2;;;4.5;;
79346;SDS011;68815;48.810;44.482;2023-04-06T04:14:16;17.2;;;4.5;;
79346;SDS011;68815;48.810;44.482;2023-04-06T04:17:17;13.7;;;5;;
79346;SDS011;68815;48.810;44.482;2023-04-06T04:20:19;13.7;;;4.5;;
79346;SDS011;68815;48.810;44.482;2023-04-06T04:23:20;13;;;4.3;;
79346;SDS011;68815;48.810;44.482;2023-04-06T04:26:21;18.2;;;5.3;;
79346;SDS011;68815;48.810;44.482;2023-04-06T04:29:23;16.9;;;5.3;;
79346;SDS011;68815;48.810;44.482;2023-04-06T04:32:24;16.8;;;5.4;;
79346;SDS011;68815;48.810;44.482;2023-04-06T04:35:26;19.2;;;5.5;;
79346;SDS011;68815;48.810;44.482;2023-04-06T04:38:27;17.8;;;5.1;;
79346;SDS011;68815;48.810;44.482;2023-04-06T04:41:29;20.7;;;5.7;;
79346;SDS011;68815;48.810;44.482;2023-04-06T04:44:31;21.6;;;6;;
79346;SDS011;68815;48.810;44.482;2023-04-06T04:47:32;21.2;;;7;;
79346;SDS011;68815;48.810;44.482;2023-04-06T04:50:34;24.8;;;7.3;;
79346;SDS011;68815;48.810;44.482;2023-04-06T04:53:41;24;;;5.2;;
79346;SDS011;68815;48.810;44.482;2023-04-06T04:56:42;28.6;;;5.4;;
79346;SDS011;68815;48.810;44.482;2023-04-06T04:59:44;26.9;;;5.4;;
79346;SDS011;68815;48.810;44.482;2023-04-06T05:02:45;26.5;;;5.5;;
79346;SDS011;68815;48.810;44.482;2023-04-06T05:05:46;23.8;;;5.3;;
79346;SDS011;68815;48.810;44.482;2023-04-06T05:08:47;36.7;;;5.5;;
79346;SDS011;68815;48.810;44.482;2023-04-06T05:11:49;36;;;5.7;;
79346;SDS011;68815;48.810;44.482;2023-04-06T05:14:50;26.4;;;5.8;;
79346;SDS011;68815;48.810;44.482;2023-04-06T05:17:52;31.6;;;6.1;;
79346;SDS011;68815;48.810;44.482;2023-04-06T05:20:53;35.4;;;5.9;;
79346;SDS011;68815;48.810;44.482;2023-04-06T05:23:54;36.2;;;6.7;;
79346;SDS011;68815;48.810;44.482;2023-04-06T05:26:56;36.9;;;5.7;;
79346;SDS011;68815;48.810;44.482;2023-04-06T05:29:57;25.7;;;6.7;;
79346;SDS011;68815;48.810;44.482;2023-04-06T05:32:59;40.1;;;7.3;;
79346;SDS011;68815;48.810;44.482;2023-04-06T05:36:01;30;;;5.8;;
79346;SDS011;68815;48.810;44.482;2023-04-06T05:39:02;29.3;;;5.2;;
79346;SDS011;68815;48.810;44.482;2023-04-06T05:42:04;30.3;;;5.2;;
79346;SDS011;68815;48.810;44.482;2023-04-06T05:45:06;28.3;;;5.3;;
79346;SDS011;68815;48.810;44.482;2023-04-06T05:48:09;30;;;5.5;;
79346;SDS011;68815;48.810;44.482;2023-04-06T05:51:10;33.6;;;5.5;;
79346;SDS011;68815;48.810;44.482;2023-04-06T05:54:12;39.7;;;7.4;;
79346;SDS011;68815;48.810;44.482;2023-04-06T05:57:13;34.8;;;5.9;;
79346;SDS011;68815;48.810;44.482;2023-04-06T06:00:15;34.6;;;6.5;;
79346;SDS011;68815;48.810;44.482;2023-04-06T06:03:19;36.6;;;6.6;;
79346;SDS011;68815;48.810;44.482;2023-04-06T06:06:21;32.8;;;5.9;;
79346;SDS011;68815;48.810;44.482;2023-04-06T06:09:22;31.1;;;5.3;;
79346;SDS011;68815;48.810;44.482;2023-04-06T06:12:23;23.9;;;5.4;;
79346;SDS011;68815;48.810;44.482;2023-04-06T06:15:25;28.2;;;5.6;;
79346;SDS011;68815;48.810;44.482;2023-04-06T06:18:26;38.7;;;6.3;;
79346;SDS011;68815;48.810;44.482;2023-04-06T06:21:28;28.1;;;5.3;;
79346;SDS011;68815;48.810;44.482;2023-04-06T06:24:29;32.4;;;6.2;;
79346;SDS011;68815;48.810;44.482;2023-04-06T06:27:30;31.4;;;5.9;;
79346;SDS011;68815;48.810;44.482;2023-04-06T06:30:31;39.1;;;5.8;;
79346;SDS011;68815;48.810;44.482;2023-04-06T06:33:33;39.4;;;7;;
79346;SDS011;68815;48.810;44.482;2023-04-06T06:36:34;38.1;;;7.7;;
79346;SDS011;68815;48.810;44.482;2023-04-06T06:39:36;33.5;;;6.2;;
79346;SDS011;68815;48.810;44.482;2023-04-06T06:42:37;33.8;;;6.1;;
79346;SDS011;68815;48.810;44.482;2023-04-06T06:45:38;34.9;;;5.9;;
79346;SDS011;68815;48.810;44.482;2023-04-06T06:48:40;35.1;;;6.7;;
79346;SDS011;68815;48.810;44.482;2023-04-06T06:51:41;32.4;;;6.6;;
79346;SDS011;68815;48.810;44.482;2023-04-06T06:54:43;36;;;6.9;;
79346;SDS011;68815;48.810;44.482;2023-04-06T06:57:45;37;;;7.3;;
79346;SDS011;68815;48.810;44.482;2023-04-06T07:00:46;28.4;;;6.5;;
79346;SDS011;68815;48.810;44.482;2023-04-06T07:03:48;37.5;;;6.6;;
79346;SDS011;68815;48.810;44.482;2023-04-06T07:06:49;38;;;6.6;;
79346;SDS011;68815;48.810;44.482;2023-04-06T07:09:50;41.4;;;7.7;;
79346;SDS011;68815;48.810;44.482;2023-04-06T07:12:52;40.1;;;7.7;;
79346;SDS011;68815;48.810;44.482;2023-04-06T07:15:53;42.5;;;7.5;;
79346;SDS011;68815;48.810;44.482;2023-04-06T07:18:54;32.9;;;7.8;;
79346;SDS011;68815;48.810;44.482;2023-04-06T07:21:56;39.8;;;7.9;;
79346;SDS011;68815;48.810;44.482;2023-04-06T07:24:57;40;;;7.4;;
79346;SDS011;68815;48.810;44.482;2023-04-06T07:31:25;39.2;;;8;;
79346;SDS011;68815;48.810;44.482;2023-04-06T07:34:26;47;;;9.6;;
79346;SDS011;68815;48.810;44.482;2023-04-06T07:37:28;37.5;;;8.5;;
79346;SDS011;68815;48.810;44.482;2023-04-06T07:40:30;43.3;;;9.1;;
79346;SDS011;68815;48.810;44.482;2023-04-06T07:43:31;46.6;;;8.1;;
79346;SDS011;68815;48.810;44.482;2023-04-06T07:50:04;46.9;;;7.7;;
79346;SDS011;68815;48.810;44.482;2023-04-06T07:53:06;43.8;;;6.4;;
79346;SDS011;68815;48.810;44.482;2023-04-06T07:56:07;45.3;;;7.9;;
79346;SDS011;68815;48.810;44.482;2023-04-06T07:59:09;45.4;;;7.8;;
79346;SDS011;68815;48.810;44.482;2023-04-06T08:02:15;38.8;;;6.7;;
79346;SDS011;68815;48.810;44.482;2023-04-06T08:05:17;48.6;;;7.5;;
79346;SDS011;68815;48.810;44.482;2023-04-06T08:08:19;46.1;;;7.6;;
79346;SDS011;68815;48.810;44.482;2023-04-06T08:11:20;46.8;;;7.5;;
79346;SDS011;68815;48.810;44.482;2023-04-06T08:14:22;41.4;;;7.2;;
79346;SDS011;68815;48.810;44.482;2023-04-06T08:17:24;44.8;;;8.1;;
79346;SDS011;68815;48.810;44.482;2023-04-06T08:20:25;48.4;;;7.5;;
79346;SDS011;68815;48.810;44.482;2023-04-06T08:23:26;43.6;;;6.7;;
79346;SDS011;68815;48.810;44.482;2023-04-06T08:26:27;43.6;;;8;;
79346;SDS011;68815;48.810;44.482;2023-04-06T08:29:29;45.1;;;7.3;;
79346;SDS011;68815;48.810;44.482;2023-04-06T08:32:30;41.4;;;6.1;;
79346;SDS011;68815;48.810;44.482;2023-04-06T08:35:32;49.5;;;6.5;;
79346;SDS011;68815;48.810;44.482;2023-04-06T08:38:33;62.7;;;8;;
79346;SDS011;68815;48.810;44.482;2023-04-06T08:41:35;48.6;;;7.4;;
79346;SDS011;68815;48.810;44.482;2023-04-06T08:44:36;39;;;6.3;;
79346;SDS011;68815;48.810;44.482;2023-04-06T08:47:37;41;;;6.2;;
79346;SDS011;68815;48.810;44.482;2023-04-06T08:50:39;43.9;;;6.5;;
79346;SDS011;68815;48.810;44.482;2023-04-06T08:53:40;43.2;;;7.2;;
79346;SDS011;68815;48.810;44.482;2023-04-06T08:56:41;50.5;;;6.6;;
79346;SDS011;68815;48.810;44.482;2023-04-06T08:59:44;49.1;;;6.6;;
79346;SDS011;68815;48.810;44.482;2023-04-06T09:02:46;48.5;;;6.2;;
79346;SDS011;68815;48.810;44.482;2023-04-06T09:05:49;45.3;;;6.8;;
79346;SDS011;68815;48.810;44.482;2023-04-06T09:08:51;47;;;6.2;;
79346;SDS011;68815;48.810;44.482;2023-04-06T09:11:52;41.4;;;5.5;;
79346;SDS011;68815;48.810;44.482;2023-04-06T09:14:54;42.1;;;5.2;;
79346;SDS011;68815;48.810;44.482;2023-04-06T09:17:57;42.9;;;5.3;;
79346;SDS011;68815;48.810;44.482;2023-04-06T09:20:59;39;;;5.1;;
79346;SDS011;68815;48.810;44.482;2023-04-06T09:24:03;38.1;;;5.5;;
79346;SDS011;68815;48.810;44.482;2023-04-06T09:27:04;39.8;;;4.8;;
79346;SDS011;68815;48.810;44.482;2023-04-06T09:30:07;40.4;;;5.4;;
79346;SDS011;68815;48.810;44.482;2023-04-06T09:33:09;35.9;;;5.4;;
79346;SDS011;68815;48.810;44.482;2023-04-06T09:36:11;40.6;;;5.3;;
79346;SDS011;68815;48.810;44.482;2023-04-06T09:39:14;45.4;;;5.7;;
79346;SDS011;68815;48.810;44.482;2023-04-06T09:42:23;35.2;;;5;;
79346;SDS011;68815;48.810;44.482;2023-04-06T09:45:25;31.4;;;4.9;;
79346;SDS011;68815;48.810;44.482;2023-04-06T09:48:28;34.8;;;5.1;;
79346;SDS011;68815;48.810;44.482;2023-04-06T09:51:36;39.6;;;6.1;;
79346;SDS011;68815;48.810;44.482;2023-04-06T09:54:38;44.9;;;5.8;;
79346;SDS011;68815;48.810;44.482;2023-04-06T09:57:49;39;;;5.4;;
79346;SDS011;68815;48.810;44.482;2023-04-06T10:00:56;35.3;;;5.5;;
79346;SDS011;68815;48.810;44.482;2023-04-06T10:04:06;32.5;;;5.2;;
79346;SDS011;68815;48.810;44.482;2023-04-06T10:07:14;39;;;5.3;;
79346;SDS011;68815;48.810;44.482;2023-04-06T10:10:16;42.1;;;5.5;;
79346;SDS011;68815;48.810;44.482;2023-04-06T10:13:18;42.1;;;5.2;;
79346;SDS011;68815;48.810;44.482;2023-04-06T10:16:20;38.1;;;4.9;;
79346;SDS011;68815;48.810;44.482;2023-04-06T10:19:24;50.6;;;5.8;;
79346;SDS011;68815;48.810;44.482;2023-04-06T10:22:32;44.6;;;5.9;;
79346;SDS011;68815;48.810;44.482;2023-04-06T10:25:38;40.4;;;5.1;;
79346;SDS011;68815;48.810;44.482;2023-04-06T10:28:40;38.7;;;5.3;;
79346;SDS011;68815;48.810;44.482;2023-04-06T10:31:42;39;;;5.5;;
79346;SDS011;68815;48.810;44.482;2023-04-06T10:34:43;34.7;;;5.2;;
79346;SDS011;68815;48.810;44.482;2023-04-06T10:37:46;62.1;;;6.3;;
79346;SDS011;68815;48.810;44.482;2023-04-06T10:40:48;41.3;;;5;;
79346;SDS011;68815;48.810;44.482;2023-04-06T10:43:54;42.9;;;5.2;;
79346;SDS011;68815;48.810;44.482;2023-04-06T10:46:58;35.7;;;5.3;;
79346;SDS011;68815;48.810;44.482;2023-04-06T10:50:01;43.9;;;4.8;;
79346;SDS011;68815;48.810;44.482;2023-04-06T10:53:02;42.4;;;6;;
79346;SDS011;68815;48.810;44.482;2023-04-06T10:56:04;34.8;;;5.5;;
79346;SDS011;68815;48.810;44.482;2023-04-06T10:59:11;38;;;5.2;;
79346;SDS011;68815;48.810;44.482;2023-04-06T11:02:20;42.1;;;5.5;;
79346;SDS011;68815;48.810;44.482;2023-04-06T11:05:22;41.1;;;5.6;;
79346;SDS011;68815;48.810;44.482;2023-04-06T11:08:24;41.9;;;5.5;;
79346;SDS011;68815;48.810;44.482;2023-04-06T11:11:26;45;;;5.8;;
79346;SDS011;68815;48.810;44.482;2023-04-06T11:14:28;47.2;;;5.5;;
79346;SDS011;68815;48.810;44.482;2023-04-06T11:17:29;42;;;6.5;;
79346;SDS011;68815;48.810;44.482;2023-04-06T11:20:31;33.2;;;4.8;;
79346;SDS011;68815;48.810;44.482;2023-04-06T11:23:33;36.1;;;5;;
79346;SDS011;68815;48.810;44.482;2023-04-06T11:26:38;38.4;;;5.8;;
79346;SDS011;68815;48.810;44.482;2023-04-06T11:29:39;38.9;;;4.9;;
79346;SDS011;68815;48.810;44.482;2023-04-06T11:32:41;45.3;;;5.1;;
79346;SDS011;68815;48.810;44.482;2023-04-06T11:35:43;34.4;;;5.3;;
79346;SDS011;68815;48.810;44.482;2023-04-06T11:38:44;32.1;;;4.3;;
79346;SDS011;68815;48.810;44.482;2023-04-06T11:41:47;33.2;;;4;;
79346;SDS011;68815;48.810;44.482;2023-04-06T11:44:49;36.1;;;5.3;;
79346;SDS011;68815;48.810;44.482;2023-04-06T11:47:56;29.2;;;4.6;;
79346;SDS011;68815;48.810;44.482;2023-04-06T11:51:00;37.3;;;4.8;;
79346;SDS011;68815;48.810;44.482;2023-04-06T11:54:02;38.5;;;5.9;;
79346;SDS011;68815;48.810;44.482;2023-04-06T11:57:04;37.9;;;4.9;;
79346;SDS011;68815;48.810;44.482;2023-04-06T12:00:06;32.7;;;4.9;;
79346;SDS011;68815;48.810;44.482;2023-04-06T12:03:08;39.6;;;5.2;;
79346;SDS011;68815;48.810;44.482;2023-04-06T12:06:10;36.1;;;5;;
79346;SDS011;68815;48.810;44.482;2023-04-06T12:09:16;29.6;;;4.7;;
79346;SDS011;68815;48.810;44.482;2023-04-06T12:12:18;39.5;;;5.1;;
79346;SDS011;68815;48.810;44.482;2023-04-06T12:15:19;40.6;;;5.6;;
79346;SDS011;68815;48.810;44.482;2023-04-06T12:18:21;35.3;;;5.7;;
79346;SDS011;68815;48.810;44.482;2023-04-06T12:21:22;37.7;;;5.6;;
79346;SDS011;68815;48.810;44.482;2023-04-06T12:24:23;33.7;;;5;;
79346;SDS011;68815;48.810;44.482;2023-04-06T12:27:25;35.6;;;5.1;;
79346;SDS011;68815;48.810;44.482;2023-04-06T12:30:26;36;;;5;;
79346;SDS011;68815;48.810;44.482;2023-04-06T12:33:28;38.1;;;5.9;;
79346;SDS011;68815;48.810;44.482;2023-04-06T12:36:29;43.1;;;5.6;;
79346;SDS011;68815;48.810;44.482;2023-04-06T12:39:31;30.2;;;5.4;;
79346;SDS011;68815;48.810;44.482;2023-04-06T12:42:32;38.5;;;5.5;;
79346;SDS011;68815;48.810;44.482;2023-04-06T12:45:34;34.6;;;5.3;;
79346;SDS011;68815;48.810;44.482;2023-04-06T12:48:35;33.4;;;5.9;;
79346;SDS011;68815;48.810;44.482;2023-04-06T12:51:37;38.6;;;5.5;;
79346;SDS011;68815;48.810;44.482;2023-04-06T12:54:44;30.5;;;5.3;;
79346;SDS011;68815;48.810;44.482;2023-04-06T12:57:45;33;;;5.2;;
79346;SDS011;68815;48.810;44.482;2023-04-06T13:00:47;36.2;;;5.1;;
79346;SDS011;68815;48.810;44.482;2023-04-06T13:03:49;39.1;;;5.5;;
79346;SDS011;68815;48.810;44.482;2023-04-06T13:06:50;30.2;;;5;;
79346;SDS011;68815;48.810;44.482;2023-04-06T13:09:51;29.3;;;4.7;;
79346;SDS011;68815;48.810;44.482;2023-04-06T13:12:53;31.2;;;5.1;;
79346;SDS011;68815;48.810;44.482;2023-04-06T13:15:55;42.2;;;5.4;;
79346;SDS011;68815;48.810;44.482;2023-04-06T13:19:01;34;;;5.2;;
79346;SDS011;68815;48.810;44.482;2023-04-06T13:22:03;31.9;;;5.1;;
79346;SDS011;68815;48.810;44.482;2023-04-06T13:25:04;30.4;;;4.9;;
79346;SDS011;68815;48.810;44.482;2023-04-06T13:28:05;33.8;;;5.4;;
79346;SDS011;68815;48.810;44.482;2023-04-06T13:31:07;34.1;;;4.8;;
79346;SDS011;68815;48.810;44.482;2023-04-06T13:34:08;35.3;;;5.2;;
79346;SDS011;68815;48.810;44.482;2023-04-06T13:37:10;38.5;;;6;;
79346;SDS011;68815;48.810;44.482;2023-04-06T13:40:12;35.3;;;4.8;;
79346;SDS011;68815;48.810;44.482;2023-04-06T13:43:14;38.4;;;5.2;;
79346;SDS011;68815;48.810;44.482;2023-04-06T13:46:15;40.4;;;5.5;;
79346;SDS011;68815;48.810;44.482;2023-04-06T13:49:16;38;;;6.3;;
79346;SDS011;68815;48.810;44.482;2023-04-06T13:52:18;41.5;;;5.4;;
79346;SDS011;68815;48.810;44.482;2023-04-06T13:55:20;38.7;;;5.3;;
79346;SDS011;68815;48.810;44.482;2023-04-06T13:58:28;44.6;;;6.3;;
79346;SDS011;68815;48.810;44.482;2023-04-06T14:01:29;47.5;;;6.4;;
79346;SDS011;68815;48.810;44.482;2023-04-06T14:04:30;45.9;;;6.5;;
79346;SDS011;68815;48.810;44.482;2023-04-06T14:07:32;46.5;;;6.8;;
79346;SDS011;68815;48.810;44.482;2023-04-06T14:10:36;47.7;;;6;;
79346;SDS011;68815;48.810;44.482;2023-04-06T14:13:37;41;;;5.8;;
79346;SDS011;68815;48.810;44.482;2023-04-06T14:16:39;36.8;;;4.9;;
79346;SDS011;68815;48.810;44.482;2023-04-06T14:19:41;38.6;;;6;;
79346;SDS011;68815;48.810;44.482;2023-04-06T14:22:42;38.2;;;5.9;;
79346;SDS011;68815;48.810;44.482;2023-04-06T14:25:44;29.1;;;4.8;;
79346;SDS011;68815;48.810;44.482;2023-04-06T14:28:45;40.1;;;5.2;;
79346;SDS011;68815;48.810;44.482;2023-04-06T14:31:47;34.2;;;5.4;;
79346;SDS011;68815;48.810;44.482;2023-04-06T14:34:48;37.9;;;5.7;;
79346;SDS011;68815;48.810;44.482;2023-04-06T14:37:50;32.7;;;5.4;;
79346;SDS011;68815;48.810;44.482;2023-04-06T14:40:51;49;;;6.6;;
79346;SDS011;68815;48.810;44.482;2023-04-06T14:43:53;44.4;;;6.3;;
79346;SDS011;68815;48.810;44.482;2023-04-06T14:46:54;36.6;;;5.7;;
79346;SDS011;68815;48.810;44.482;2023-04-06T14:49:55;33.4;;;5.1;;
79346;SDS011;68815;48.810;44.482;2023-04-06T14:52:57;34.2;;;6.2;;
79346;SDS011;68815;48.810;44.482;2023-04-06T14:55:58;38.7;;;6;;
79346;SDS011;68815;48.810;44.482;2023-04-06T14:59:00;33.7;;;6;;
79346;SDS011;68815;48.810;44.482;2023-04-06T15:02:02;40.6;;;6.4;;
79346;SDS011;68815;48.810;44.482;2023-04-06T15:05:04;44;;;6.7;;
79346;SDS011;68815;48.810;44.482;2023-04-06T15:08:05;37.3;;;6.1;;
79346;SDS011;68815;48.810;44.482;2023-04-06T15:11:07;40.8;;;6.6;;
79346;SDS011;68815;48.810;44.482;2023-04-06T15:14:08;41.9;;;6.6;;
79346;SDS011;68815;48.810;44.482;2023-04-06T15:17:09;45.4;;;6.9;;
79346;SDS011;68815;48.810;44.482;2023-04-06T15:20:11;52.6;;;7.6;;
79346;SDS011;68815;48.810;44.482;2023-04-06T15:23:12;48.5;;;7.8;;
79346;SDS011;68815;48.810;44.482;2023-04-06T15:26:13;40.1;;;7.5;;
79346;SDS011;68815;48.810;44.482;2023-04-06T15:29:15;42;;;7.4;;
79346;SDS011;68815;48.810;44.482;2023-04-06T15:32:16;42.7;;;6.9;;
79346;SDS011;68815;48.810;44.482;2023-04-06T15:35:18;52.7;;;9.3;;
79346;SDS011;68815;48.810;44.482;2023-04-06T15:38:19;47.7;;;10.2;;
79346;SDS011;68815;48.810;44.482;2023-04-06T15:41:20;47.2;;;9.5;;
79346;SDS011;68815;48.810;44.482;2023-04-06T15:44:22;48.7;;;7.9;;
79346;SDS011;68815;48.810;44.482;2023-04-06T15:47:23;50.4;;;7.7;;
79346;SDS011;68815;48.810;44.482;2023-04-06T15:50:25;40.3;;;7.6;;
79346;SDS011;68815;48.810;44.482;2023-04-06T15:53:27;43.4;;;8.6;;
79346;SDS011;68815;48.810;44.482;2023-04-06T15:56:28;50.1;;;9;;
79346;SDS011;68815;48.810;44.482;2023-04-06T15:59:30;42.7;;;9;;
79346;SDS011;68815;48.810;44.482;2023-04-06T16:02:31;48.6;;;9;;
79346;SDS011;68815;48.810;44.482;2023-04-06T16:05:33;36.7;;;7.3;;
79346;SDS011;68815;48.810;44.482;2023-04-06T16:08:34;39.1;;;8.6;;
79346;SDS011;68815;48.810;44.482;2023-04-06T16:11:36;36.4;;;7.5;;
79346;SDS011;68815;48.810;44.482;2023-04-06T16:14:37;39.5;;;7.8;;
79346;SDS011;68815;48.810;44.482;2023-04-06T16:17:38;38.4;;;8.3;;
79346;SDS011;68815;48.810;44.482;2023-04-06T16:20:41;39.1;;;8.5;;
79346;SDS011;68815;48.810;44.482;2023-04-06T16:23:42;47.4;;;11.1;;
79346;SDS011;68815;48.810;44.482;2023-04-06T16:26:45;49.1;;;11.3;;
79346;SDS011;68815;48.810;44.482;2023-04-06T16:29:47;47.8;;;11.3;;
79346;SDS011;68815;48.810;44.482;2023-04-06T16:32:48;37.7;;;8.5;;
79346;SDS011;68815;48.810;44.482;2023-04-06T16:35:50;37.7;;;7.5;;
79346;SDS011;68815;48.810;44.482;2023-04-06T16:38:51;41.8;;;7.7;;
79346;SDS011;68815;48.810;44.482;2023-04-06T16:41:52;36.1;;;6.6;;
79346;SDS011;68815;48.810;44.482;2023-04-06T16:44:54;34.9;;;7.1;;
79346;SDS011;68815;48.810;44.482;2023-04-06T16:47:55;34.3;;;7.2;;
79346;SDS011;68815;48.810;44.482;2023-04-06T16:54:13;28.4;;;6.1;;
79346;SDS011;68815;48.810;44.482;2023-04-06T16:57:15;38.8;;;6.8;;
79346;SDS011;68815;48.810;44.482;2023-04-06T17:00:17;36.4;;;5.9;;
79346;SDS011;68815;48.810;44.482;2023-04-06T17:03:18;29.2;;;6;;
79346;SDS011;68815;48.810;44.482;2023-04-06T17:06:20;29.3;;;5.6;;
79346;SDS011;68815;48.810;44.482;2023-04-06T17:09:21;32;;;6.2;;
79346;SDS011;68815;48.810;44.482;2023-04-06T17:12:23;36.3;;;6.2;;
79346;SDS011;68815;48.810;44.482;2023-04-06T17:15:24;32.5;;;6.2;;
79346;SDS011;68815;48.810;44.482;2023-04-06T17:18:25;35.6;;;6.1;;
79346;SDS011;68815;48.810;44.482;2023-04-06T17:21:27;31;;;6.5;;
79346;SDS011;68815;48.810;44.482;2023-04-06T17:24:28;36.8;;;5.9;;
79346;SDS011;68815;48.810;44.482;2023-04-06T17:27:29;35.8;;;6.2;;
79346;SDS011;68815;48.810;44.482;2023-04-06T17:30:31;36.1;;;6;;
79346;SDS011;68815;48.810;44.482;2023-04-06T17:33:32;31.2;;;6;;
79346;SDS011;68815;48.810;44.482;2023-04-06T17:36:33;39.4;;;6.5;;
79346;SDS011;68815;48.810;44.482;2023-04-06T17:39:35;38.8;;;6.2;;
79346;SDS011;68815;48.810;44.482;2023-04-06T17:42:36;39.9;;;6.6;;
79346;SDS011;68815;48.810;44.482;2023-04-06T17:45:37;34.8;;;6.4;;
79346;SDS011;68815;48.810;44.482;2023-04-06T17:48:39;35.1;;;6.2;;
79346;SDS011;68815;48.810;44.482;2023-04-06T17:51:41;28.2;;;6.2;;
79346;SDS011;68815;48.810;44.482;2023-04-06T17:54:43;37.9;;;6.2;;
79346;SDS011;68815;48.810;44.482;2023-04-06T17:57:44;31.6;;;6;;
79346;SDS011;68815;48.810;44.482;2023-04-06T18:00:46;39;;;6.8;;
79346;SDS011;68815;48.810;44.482;2023-04-06T18:03:47;37;;;6.2;;
79346;SDS011;68815;48.810;44.482;2023-04-06T18:06:48;34.2;;;6.4;;
79346;SDS011;68815;48.810;44.482;2023-04-06T18:09:50;31.4;;;5.8;;
79346;SDS011;68815;48.810;44.482;2023-04-06T18:12:51;35.9;;;6.4;;
79346;SDS011;68815;48.810;44.482;2023-04-06T18:15:52;40;;;6.5;;
79346;SDS011;68815;48.810;44.482;2023-04-06T18:18:54;38.8;;;6.2;;
79346;SDS011;68815;48.810;44.482;2023-04-06T18:21:55;36.8;;;5.9;;
79346;SDS011;68815;48.810;44.482;2023-04-06T18:24:57;34.1;;;5.6;;
79346;SDS011;68815;48.810;44.482;2023-04-06T18:27:58;39.8;;;6.6;;
79346;SDS011;68815;48.810;44.482;2023-04-06T18:31:00;35.3;;;6.3;;
79346;SDS011;68815;48.810;44.482;2023-04-06T18:34:01;37.6;;;6.3;;
79346;SDS011;68815;48.810;44.482;2023-04-06T18:37:02;31.3;;;6.1;;
79346;SDS011;68815;48.810;44.482;2023-04-06T18:40:04;34.2;;;6.6;;
79346;SDS011;68815;48.810;44.482;2023-04-06T18:43:06;34.6;;;5.7;;